Time;durP1;ratioP1;P1;durP2;ratioP2;P2;SDS_P1;SDS_P2;PMS_P1;PMS_P2;Temp;Humidity;BMP_temperature;BMP_pressure;BME280_temperature;BME280_humidity;BME280_pressure;Samples;Min_cycle;Max_cycle;Signal;HPM_P1;HPM_P2
2022/11/24 00:01:16;;;;;;;32.10;4.95;;;4.60;99.90;;;;;;6188056;23;20040;-88
2022/11/24 00:04:06;;;;;;;29.38;4.45;;;4.50;99.90;;;;;;6185275;23;20040;-87
2022/11/24 00:06:56;;;;;;;25.00;4.25;;;4.50;99.90;;;;;;6164632;23;20029;-88
2022/11/24 00:09:45;;;;;;;39.55;4.68;;;4.70;99.90;;;;;;6186609;23;20100;-86
2022/11/24 00:12:32;;;;;;;28.65;4.50;;;4.80;99.90;;;;;;6185479;23;20024;-86
2022/11/24 00:15:19;;;;;;;30.25;5.25;;;4.90;99.90;;;;;;6185842;23;20488;-87
2022/11/24 00:18:07;;;;;;;27.30;4.90;;;4.90;99.90;;;;;;6184864;23;20105;-87
2022/11/24 00:20:55;;;;;;;22.48;4.65;;;4.90;99.90;;;;;;6186410;23;20024;-87
2022/11/24 00:23:42;;;;;;;20.73;4.35;;;5.10;99.90;;;;;;6187278;23;20321;-86
2022/11/24 00:26:31;;;;;;;21.25;3.65;;;5.20;99.90;;;;;;6186372;23;20032;-86
2022/11/24 00:29:18;;;;;;;24.25;4.05;;;5.40;99.90;;;;;;6185967;23;20114;-86
2022/11/24 00:32:07;;;;;;;20.35;3.58;;;5.40;99.90;;;;;;6185730;23;20432;-85
2022/11/24 00:34:54;;;;;;;18.98;3.08;;;5.40;99.90;;;;;;6185658;23;20033;-86
2022/11/24 00:37:41;;;;;;;18.35;3.65;;;5.50;99.90;;;;;;6186896;23;20269;-85
2022/11/24 00:40:28;;;;;;;17.38;3.33;;;5.40;99.90;;;;;;6186576;23;20064;-86
2022/11/24 00:43:24;;;;;;;16.05;3.30;;;5.40;99.90;;;;;;6185939;23;20041;-88
2022/11/24 00:46:13;;;;;;;23.33;3.35;;;5.40;99.90;;;;;;6164428;23;20072;-85
2022/11/24 00:49:00;;;;;;;21.10;3.90;;;5.40;99.90;;;;;;6186940;23;20029;-85
2022/11/24 00:51:48;;;;;;;11.20;3.28;;;5.40;99.90;;;;;;6185088;23;20115;-85
2022/11/24 00:54:37;;;;;;;18.75;3.03;;;5.50;99.90;;;;;;6185030;23;20029;-86
2022/11/24 00:57:24;;;;;;;19.92;3.67;;;5.50;99.90;;;;;;6186153;23;20040;-84
2022/11/24 01:00:12;;;;;;;19.63;3.58;;;5.50;99.90;;;;;;6185951;23;20079;-86
2022/11/24 01:02:59;;;;;;;13.68;3.00;;;5.50;99.90;;;;;;6188646;23;20099;-85
2022/11/24 01:05:47;;;;;;;16.50;2.90;;;5.40;99.90;;;;;;6190930;23;20384;-86
2022/11/24 01:08:36;;;;;;;23.30;6.18;;;5.50;99.90;;;;;;6189130;23;20037;-86
2022/11/24 01:11:27;;;;;;;13.80;3.50;;;5.50;99.90;;;;;;6186138;23;20108;-85
2022/11/24 01:14:14;;;;;;;27.00;3.75;;;5.50;99.90;;;;;;6184890;23;20068;-83
2022/11/24 01:17:01;;;;;;;15.38;3.63;;;5.50;99.90;;;;;;6165390;23;20100;-85
2022/11/24 01:19:50;;;;;;;19.70;2.90;;;5.50;99.90;;;;;;6185631;23;20025;-86
2022/11/24 01:22:37;;;;;;;21.27;3.83;;;5.60;99.90;;;;;;6185463;23;20064;-86
2022/11/24 01:25:25;;;;;;;14.90;3.80;;;5.60;74.40;;;;;;6187021;23;20317;-87
2022/11/24 01:28:15;;;;;;;20.73;4.43;;;5.60;54.20;;;;;;6189041;23;20128;-85
2022/11/24 01:31:06;;;;;;;20.05;4.45;;;5.50;62.20;;;;;;6166869;23;20110;-85
2022/11/24 01:33:54;;;;;;;11.93;2.70;;;5.50;31.30;;;;;;6188041;23;20036;-84
2022/11/24 01:36:41;;;;;;;16.02;3.30;;;5.50;48.00;;;;;;6166053;23;20049;-86
2022/11/24 01:39:28;;;;;;;15.00;2.97;;;5.40;62.80;;;;;;6187759;23;20119;-85
2022/11/24 01:42:41;;;;;;;10.63;3.08;;;5.50;72.10;;;;;;6165450;23;20028;-85
2022/11/24 01:45:39;;;;;;;16.83;2.70;;;5.50;66.70;;;;;;6183983;23;20164;-86
2022/11/24 01:48:31;;;;;;;18.85;3.30;;;5.40;74.60;;;;;;6188332;23;20056;-87
2022/11/24 01:51:23;;;;;;;6.43;2.10;;;5.40;99.90;;;;;;6189113;23;20126;-86
2022/11/24 01:54:19;;;;;;;9.73;2.58;;;5.40;99.90;;;;;;6189133;23;20025;-86
2022/11/24 01:57:15;;;;;;;25.08;3.00;;;5.40;99.90;;;;;;6187479;23;20035;-84
2022/11/24 02:00:08;;;;;;;16.33;3.20;;;5.40;99.90;;;;;;6185628;23;20035;-86
2022/11/24 02:02:57;;;;;;;12.65;3.22;;;5.40;99.90;;;;;;6166185;23;20377;-86
2022/11/24 02:05:56;;;;;;;14.57;3.15;;;5.20;99.90;;;;;;6187557;23;20346;-86
2022/11/24 02:09:14;;;;;;;10.30;2.97;;;5.20;99.90;;;;;;6194250;23;20056;-86
2022/11/24 02:12:02;;;;;;;11.27;2.78;;;5.20;99.90;;;;;;6196969;23;20025;-87
2022/11/24 02:14:50;;;;;;;10.18;2.63;;;5.10;99.90;;;;;;6193459;23;20040;-85
2022/11/24 02:17:37;;;;;;;14.70;3.33;;;5.10;99.90;;;;;;6192927;23;20389;-85
2022/11/24 02:20:24;;;;;;;13.75;3.50;;;5.10;99.90;;;;;;6165785;23;20080;-85
2022/11/24 02:23:50;;;;;;;10.95;3.08;;;5.10;99.90;;;;;;6186606;23;20021;-84
2022/11/24 02:26:47;;;;;;;15.13;3.38;;;5.10;99.90;;;;;;6165258;23;20362;-89
2022/11/24 02:29:34;;;;;;;10.23;2.72;;;5.10;99.90;;;;;;6188163;23;20424;-88
2022/11/24 02:32:22;;;;;;;14.30;2.97;;;5.00;99.90;;;;;;6186453;23;20041;-88
2022/11/24 02:35:10;;;;;;;12.63;3.08;;;4.90;99.90;;;;;;6165275;23;20420;-89
2022/11/24 02:37:58;;;;;;;17.15;3.28;;;4.90;99.90;;;;;;6187992;23;20056;-88
2022/11/24 02:40:48;;;;;;;10.23;2.90;;;4.80;99.90;;;;;;6187651;23;20343;-87
2022/11/24 02:43:49;;;;;;;15.82;3.05;;;4.80;99.90;;;;;;6188019;23;20104;-88
2022/11/24 02:46:40;;;;;;;9.97;3.00;;;4.80;99.90;;;;;;6187430;23;20061;-86
2022/11/24 02:49:27;;;;;;;14.35;3.20;;;4.80;99.90;;;;;;6188656;23;20099;-86
2022/11/24 02:52:16;;;;;;;12.98;3.35;;;4.90;99.90;;;;;;6165620;23;20035;-89
2022/11/24 02:55:03;;;;;;;15.68;3.67;;;4.90;99.90;;;;;;6186333;23;20029;-88
2022/11/24 02:57:50;;;;;;;17.02;3.88;;;4.90;99.90;;;;;;6165086;23;20021;-87
2022/11/24 03:00:40;;;;;;;12.63;3.25;;;4.90;99.90;;;;;;6165049;23;20104;-88
2022/11/24 03:03:27;;;;;;;16.60;3.72;;;4.90;99.90;;;;;;6187056;23;20099;-85
2022/11/24 03:06:14;;;;;;;10.65;3.05;;;4.80;99.90;;;;;;6184133;23;20039;-87
2022/11/24 03:09:05;;;;;;;20.48;3.75;;;4.80;99.90;;;;;;6164917;23;20104;-86
2022/11/24 03:11:52;;;;;;;11.15;2.80;;;4.90;99.90;;;;;;6188352;23;20039;-88
2022/11/24 03:14:42;;;;;;;13.45;3.00;;;4.90;99.90;;;;;;6166192;23;20104;-87
2022/11/24 03:17:29;;;;;;;16.33;3.42;;;5.00;99.90;;;;;;6186431;23;20048;-86
2022/11/24 03:20:16;;;;;;;9.90;2.60;;;5.00;99.90;;;;;;6188410;23;20035;-87
2022/11/24 03:23:03;;;;;;;9.00;2.83;;;4.90;99.90;;;;;;6164926;23;20032;-86
2022/11/24 03:25:50;;;;;;;14.15;3.78;;;4.90;99.90;;;;;;6187498;23;20104;-86
2022/11/24 03:28:40;;;;;;;14.20;2.83;;;4.90;99.90;;;;;;6187138;23;20031;-87
2022/11/24 03:31:27;;;;;;;20.58;3.88;;;5.00;99.90;;;;;;6188208;23;20029;-87
2022/11/24 03:34:14;;;;;;;16.60;3.35;;;5.00;99.90;;;;;;6166104;23;20239;-85
2022/11/24 03:37:02;;;;;;;12.32;3.17;;;5.00;99.90;;;;;;6191867;23;20021;-88
2022/11/24 03:39:51;;;;;;;18.00;3.92;;;5.00;99.90;;;;;;6169483;23;20096;-87
2022/11/24 03:42:39;;;;;;;11.65;3.22;;;5.00;99.90;;;;;;6190268;23;20065;-85
2022/11/24 03:45:26;;;;;;;9.82;2.42;;;5.20;99.90;;;;;;6189012;23;20068;-85
2022/11/24 03:48:32;;;;;;;9.52;2.60;;;5.30;99.90;;;;;;6193235;23;20029;-88
2022/11/24 03:51:19;;;;;;;20.20;3.65;;;5.40;99.90;;;;;;6170019;23;20352;-87
2022/11/24 03:54:06;;;;;;;14.55;3.17;;;5.40;99.90;;;;;;6185879;23;20104;-87
2022/11/24 03:56:58;;;;;;;15.52;3.70;;;5.30;99.90;;;;;;6186341;23;20025;-88
2022/11/24 03:59:48;;;;;;;17.30;3.57;;;5.30;99.90;;;;;;6187452;23;20017;-87
2022/11/24 04:02:35;;;;;;;10.43;2.90;;;5.30;99.90;;;;;;6187512;23;20383;-86
2022/11/24 04:05:24;;;;;;;22.90;3.90;;;5.30;99.90;;;;;;6184343;23;20024;-85
2022/11/24 04:08:11;;;;;;;12.45;2.70;;;5.40;99.90;;;;;;6187481;23;20285;-86
2022/11/24 04:11:03;;;;;;;22.13;3.15;;;5.40;99.90;;;;;;6184972;23;20029;-86
2022/11/24 04:13:50;;;;;;;13.40;3.22;;;5.50;99.90;;;;;;6186276;23;20039;-89
2022/11/24 04:16:40;;;;;;;15.82;3.72;;;5.50;99.90;;;;;;6187837;23;20025;-86
2022/11/24 04:19:27;;;;;;;16.02;3.88;;;5.50;99.90;;;;;;6188044;23;20084;-87
2022/11/24 04:22:16;;;;;;;15.15;3.42;;;5.60;99.90;;;;;;6193904;23;20036;-86
2022/11/24 04:25:05;;;;;;;13.88;3.08;;;5.60;99.60;;;;;;6186023;23;20104;-86
2022/11/24 04:27:53;;;;;;;16.98;3.72;;;5.70;1.00;;;;;;6165743;23;20025;-86
2022/11/24 04:30:43;;;;;;;17.65;3.40;;;5.70;1.00;;;;;;6187890;23;20025;-86
2022/11/24 04:33:31;;;;;;;12.82;3.10;;;5.70;99.90;;;;;;6186817;23;20036;-87
2022/11/24 04:36:18;;;;;;;17.92;3.65;;;5.70;99.90;;;;;;6186106;23;20027;-88
2022/11/24 04:39:06;;;;;;;13.80;2.70;;;5.60;99.90;;;;;;6188184;23;20025;-88
2022/11/24 04:42:14;;;;;;;23.25;3.60;;;5.60;7.60;;;;;;6170694;23;20099;-87
2022/11/24 04:45:02;;;;;;;14.07;2.88;;;5.50;1.00;;;;;;6187946;23;20468;-87
2022/11/24 04:47:49;;;;;;;13.98;2.97;;;5.40;1.00;;;;;;6186677;23;20024;-87
2022/11/24 04:50:37;;;;;;;19.23;3.28;;;5.40;99.90;;;;;;6166626;23;20039;-88
2022/11/24 04:53:25;;;;;;;17.33;3.20;;;5.20;99.90;;;;;;6166356;23;20452;-86
2022/11/24 04:56:12;;;;;;;18.42;3.58;;;5.10;99.90;;;;;;6164597;23;20036;-87
2022/11/24 04:59:00;;;;;;;19.60;3.35;;;5.10;99.90;;;;;;6187113;23;20020;-87
2022/11/24 05:01:54;;;;;;;18.63;2.92;;;5.10;99.90;;;;;;6186502;23;20025;-87
2022/11/24 05:04:41;;;;;;;20.98;3.47;;;5.00;99.90;;;;;;6187095;23;20088;-88
2022/11/24 05:07:28;;;;;;;20.40;3.92;;;5.00;99.90;;;;;;6188400;23;20056;-87
2022/11/24 05:10:34;;;;;;;21.33;3.55;;;5.00;99.90;;;;;;6187907;23;20648;-88
2022/11/24 05:13:21;;;;;;;21.13;3.65;;;5.10;99.90;;;;;;6189133;23;20103;-87
2022/11/24 05:16:08;;;;;;;13.27;3.90;;;5.10;97.80;;;;;;6169263;23;20410;-84
2022/11/24 05:18:57;;;;;;;17.35;3.65;;;5.10;99.90;;;;;;6187553;23;20036;-87
2022/11/24 05:21:44;;;;;;;20.08;4.10;;;5.10;18.60;;;;;;6169409;23;20052;-86
2022/11/24 05:24:34;;;;;;;21.05;3.40;;;5.20;1.00;;;;;;6196056;23;20044;-89
2022/11/24 05:27:24;;;;;;;19.48;3.13;;;5.30;1.00;;;;;;6172806;23;20017;-88
2022/11/24 05:30:12;;;;;;;17.17;3.45;;;5.30;1.00;;;;;;6172351;23;20020;-87
2022/11/24 05:33:04;;;;;;;20.98;3.35;;;5.40;1.00;;;;;;6190205;23;20028;-86
2022/11/24 05:35:52;;;;;;;12.80;3.03;;;5.40;99.90;;;;;;6188700;23;20049;-86
2022/11/24 05:38:40;;;;;;;24.45;3.55;;;5.30;1.00;;;;;;6190486;23;20021;-84
2022/11/24 05:41:27;;;;;;;19.20;4.28;;;5.20;99.90;;;;;;6170486;23;20025;-84
2022/11/24 05:44:20;;;;;;;18.08;3.83;;;5.20;99.90;;;;;;6169758;23;20419;-84
2022/11/24 05:47:08;;;;;;;22.15;4.13;;;5.20;99.90;;;;;;6171692;23;20052;-84
2022/11/24 05:49:55;;;;;;;16.58;2.95;;;5.30;99.90;;;;;;6168491;23;20039;-85
2022/11/24 05:52:42;;;;;;;26.02;3.65;;;5.30;99.90;;;;;;6197062;23;20125;-88
2022/11/24 05:55:29;;;;;;;21.20;3.67;;;5.30;99.90;;;;;;6194854;23;20017;-84
2022/11/24 05:58:19;;;;;;;15.52;3.25;;;5.30;99.90;;;;;;6169423;23;20045;-85
2022/11/24 06:01:06;;;;;;;23.63;3.58;;;5.30;99.90;;;;;;6187028;23;20621;-89
2022/11/24 06:03:54;;;;;;;14.60;3.35;;;5.30;99.90;;;;;;6192233;23;20036;-87
2022/11/24 06:06:41;;;;;;;17.00;3.78;;;5.30;99.90;;;;;;6188313;23;20424;-87
2022/11/24 06:09:29;;;;;;;23.60;3.85;;;5.30;66.60;;;;;;6165955;23;20029;-89
2022/11/24 06:12:16;;;;;;;26.10;4.32;;;5.30;39.40;;;;;;6187452;23;20032;-88
2022/11/24 06:15:03;;;;;;;21.95;3.80;;;5.40;1.00;;;;;;6188933;23;20084;-86
2022/11/24 06:17:54;;;;;;;24.52;3.67;;;5.40;1.00;;;;;;6190961;23;20056;-88
2022/11/24 06:20:41;;;;;;;19.92;4.03;;;5.40;99.90;;;;;;6192281;23;20025;-89
2022/11/24 06:23:49;;;;;;;24.40;3.80;;;5.40;99.90;;;;;;6193359;23;20025;-91
2022/11/24 06:26:36;;;;;;;18.17;3.30;;;5.40;94.00;;;;;;6188879;23;20421;-88
2022/11/24 06:29:23;;;;;;;21.95;4.22;;;5.30;80.90;;;;;;6169166;23;20104;-87
2022/11/24 06:32:10;;;;;;;17.45;3.50;;;5.40;99.90;;;;;;6166550;23;20104;-88
2022/11/24 06:34:57;;;;;;;23.63;4.88;;;5.40;25.80;;;;;;6186870;23;20462;-88
2022/11/24 06:37:48;;;;;;;30.67;4.13;;;5.40;1.00;;;;;;6168676;23;20029;-87
2022/11/24 06:40:36;;;;;;;22.63;4.00;;;5.50;99.90;;;;;;6165174;23;20024;-88
2022/11/24 06:43:25;;;;;;;25.65;4.32;;;5.50;99.90;;;;;;6184719;23;20124;-87
2022/11/24 06:46:12;;;;;;;15.35;3.70;;;5.60;99.90;;;;;;6163867;23;20035;-88
2022/11/24 06:49:01;;;;;;;20.88;4.00;;;5.60;1.00;;;;;;6185247;23;20049;-87
2022/11/24 06:51:49;;;;;;;25.95;4.38;;;5.60;1.00;;;;;;6166820;23;20089;-87
2022/11/24 06:54:36;;;;;;;19.10;3.83;;;5.60;99.90;;;;;;6165013;23;20029;-87
2022/11/24 06:57:26;;;;;;;23.60;4.13;;;5.70;99.90;;;;;;6165487;23;20021;-86
2022/11/24 07:00:13;;;;;;;20.77;3.85;;;5.70;99.90;;;;;;6187297;23;20025;-88
2022/11/24 07:03:01;;;;;;;21.23;3.90;;;5.70;39.80;;;;;;6189131;23;20405;-89
2022/11/24 07:05:48;;;;;;;20.77;4.18;;;5.70;1.00;;;;;;6188804;23;20029;-88
2022/11/24 07:08:35;;;;;;;28.50;4.53;;;5.70;1.00;;;;;;6187973;23;20037;-88
2022/11/24 07:11:24;;;;;;;18.50;3.53;;;5.70;1.00;;;;;;6164712;23;20281;-88
2022/11/24 07:14:11;;;;;;;20.30;4.38;;;5.70;99.90;;;;;;6167228;23;20025;-90
2022/11/24 07:16:59;;;;;;;17.60;4.10;;;5.70;1.00;;;;;;6187656;23;20360;-89
2022/11/24 07:19:46;;;;;;;22.55;4.35;;;5.70;1.00;;;;;;6185293;23;20104;-89
2022/11/24 07:22:34;;;;;;;20.02;3.63;;;5.70;99.90;;;;;;6186086;23;20079;-88
2022/11/24 07:25:21;;;;;;;26.92;4.10;;;5.60;1.00;;;;;;6186265;23;20390;-90
2022/11/24 07:28:08;;;;;;;37.90;5.68;;;5.60;99.90;;;;;;6185166;23;20028;-86
2022/11/24 07:30:56;;;;;;;27.13;5.10;;;5.60;53.60;;;;;;6164274;23;20115;-86
2022/11/24 07:33:48;;;;;;;21.17;4.45;;;5.50;99.90;;;;;;6185675;23;20101;-87
2022/11/24 07:36:40;;;;;;;29.17;5.10;;;5.50;1.00;;;;;;6186741;23;20025;-89
2022/11/24 07:39:30;;;;;;;20.55;4.60;;;5.50;8.80;;;;;;6189176;23;20400;-87
2022/11/24 07:42:17;;;;;;;24.05;5.28;;;5.50;98.10;;;;;;6187492;23;20083;-87
2022/11/24 07:45:07;;;;;;;26.13;5.18;;;5.40;99.90;;;;;;6188185;23;20033;-87
2022/11/24 07:47:56;;;;;;;31.85;4.63;;;5.40;99.90;;;;;;6188355;23;20031;-88
2022/11/24 07:50:43;;;;;;;19.45;4.55;;;5.50;99.90;;;;;;6164972;23;20053;-86
2022/11/24 07:53:34;;;;;;;33.78;4.38;;;5.50;99.90;;;;;;6187475;23;20021;-87
2022/11/24 07:56:21;;;;;;;25.75;5.53;;;5.50;99.90;;;;;;6189931;23;20115;-87
2022/11/24 07:59:09;;;;;;;25.45;5.53;;;5.50;99.90;;;;;;6189758;23;20400;-86
2022/11/24 08:01:59;;;;;;;32.17;6.28;;;5.60;99.90;;;;;;6191223;23;20333;-88
2022/11/24 08:04:49;;;;;;;22.83;5.22;;;5.60;99.90;;;;;;6195411;23;20061;-87
2022/11/24 08:07:36;;;;;;;20.27;4.53;;;5.60;99.90;;;;;;6203923;23;20060;-88
2022/11/24 08:10:23;;;;;;;20.23;4.18;;;5.50;99.90;;;;;;6189180;23;20089;-87
2022/11/24 08:13:10;;;;;;;13.05;2.78;;;5.60;99.90;;;;;;6191835;23;20029;-86
2022/11/24 08:15:57;;;;;;;11.00;2.42;;;5.50;99.90;;;;;;6193247;23;20020;-88
2022/11/24 08:18:52;;;;;;;10.75;2.65;;;5.50;99.90;;;;;;6170479;23;20048;-87
2022/11/24 08:21:40;;;;;;;9.05;2.83;;;5.60;99.90;;;;;;6195302;23;20328;-86
2022/11/24 08:24:27;;;;;;;9.93;2.50;;;5.50;99.90;;;;;;6194215;23;20025;-87
2022/11/24 08:27:15;;;;;;;8.30;2.17;;;5.50;99.90;;;;;;6171385;23;20025;-87
2022/11/24 08:30:02;;;;;;;6.25;1.88;;;5.50;99.90;;;;;;6189898;23;20056;-86
2022/11/24 08:32:50;;;;;;;4.72;2.50;;;5.50;99.90;;;;;;6168675;23;20408;-86
2022/11/24 08:35:38;;;;;;;2.55;1.42;;;5.40;99.90;;;;;;6190198;23;20035;-87
2022/11/24 08:38:25;;;;;;;4.28;1.30;;;5.40;99.90;;;;;;6189647;23;20025;-87
2022/11/24 08:41:16;;;;;;;6.55;1.70;;;5.40;99.90;;;;;;6190382;23;20036;-85
2022/11/24 08:44:07;;;;;;;8.48;2.17;;;5.40;99.90;;;;;;6167306;23;20025;-84
2022/11/24 08:46:55;;;;;;;7.95;2.17;;;5.40;99.90;;;;;;6187890;23;20029;-85
2022/11/24 08:49:44;;;;;;;6.38;2.28;;;5.50;99.90;;;;;;6167015;23;20080;-84
2022/11/24 08:52:34;;;;;;;10.95;2.88;;;5.50;99.90;;;;;;6189127;23;20040;-85
2022/11/24 08:55:21;;;;;;;7.35;2.85;;;5.60;99.90;;;;;;6167117;23;20060;-85
2022/11/24 08:58:11;;;;;;;8.73;2.92;;;5.70;99.90;;;;;;6187617;23;20033;-85
2022/11/24 09:01:05;;;;;;;6.50;2.38;;;6.00;99.90;;;;;;6188255;23;20379;-84
2022/11/24 09:03:55;;;;;;;8.80;2.05;;;6.20;99.90;;;;;;6189620;23;20025;-84
2022/11/24 09:06:42;;;;;;;2.22;1.30;;;6.20;99.90;;;;;;6189602;23;20029;-84
2022/11/24 09:09:30;;;;;;;2.15;1.08;;;6.10;55.00;;;;;;6166765;23;20060;-85
2022/11/24 09:12:20;;;;;;;2.58;1.30;;;6.10;41.90;;;;;;6186510;23;20352;-85
2022/11/24 09:15:07;;;;;;;3.85;1.45;;;6.00;1.00;;;;;;6185794;23;20435;-84
2022/11/24 09:17:55;;;;;;;5.07;1.38;;;6.00;1.00;;;;;;6188253;23;20103;-85
2022/11/24 09:20:43;;;;;;;5.20;1.50;;;6.10;1.00;;;;;;6164960;23;20021;-84
2022/11/24 09:23:30;;;;;;;3.88;1.30;;;6.40;1.00;;;;;;6188552;23;20032;-85
2022/11/24 09:26:20;;;;;;;2.08;1.30;;;6.50;99.90;;;;;;6186345;23;20029;-84
2022/11/24 09:29:08;;;;;;;3.08;1.10;;;6.60;14.80;;;;;;6185489;23;20152;-85
2022/11/24 09:31:59;;;;;;;1.70;1.15;;;6.90;99.90;;;;;;6186804;23;20028;-85
2022/11/24 09:34:53;;;;;;;3.08;1.15;;;7.10;99.90;;;;;;6186557;23;20025;-83
2022/11/24 09:37:42;;;;;;;0.93;0.80;;;7.20;99.90;;;;;;6187819;23;20355;-83
2022/11/24 09:40:30;;;;;;;2.47;1.08;;;7.20;99.90;;;;;;6185555;23;20410;-85
2022/11/24 09:43:49;;;;;;;2.05;1.10;;;7.00;99.90;;;;;;6185663;23;20025;-83
2022/11/24 09:46:49;;;;;;;1.65;1.20;;;6.90;1.00;;;;;;6187398;23;20025;-84
2022/11/24 09:49:55;;;;;;;1.58;1.30;;;7.00;99.90;;;;;;6167239;23;20029;-84
2022/11/24 09:53:02;;;;;;;1.25;1.15;;;6.90;99.90;;;;;;6186790;23;20028;-85
2022/11/24 09:55:55;;;;;;;2.47;1.25;;;6.90;99.90;;;;;;6188106;23;20028;-88
2022/11/24 09:59:22;;;;;;;1.75;1.20;;;6.90;99.90;;;;;;6194754;23;20031;-86
2022/11/24 10:02:12;;;;;;;4.57;0.80;;;6.80;99.90;;;;;;6169339;23;20045;-87
2022/11/24 10:04:59;;;;;;;3.33;1.30;;;6.80;99.90;;;;;;6192994;23;20053;-86
2022/11/24 10:08:05;;;;;;;2.58;1.10;;;6.80;99.90;;;;;;6188654;23;20025;-86
2022/11/24 10:10:58;;;;;;;1.40;1.00;;;7.00;99.90;;;;;;6185741;23;20164;-87
2022/11/24 10:14:07;;;;;;;0.95;0.93;;;7.20;99.90;;;;;;6187748;23;20025;-88
2022/11/24 10:17:08;;;;;;;2.90;1.23;;;7.20;99.90;;;;;;6191760;23;20036;-88
2022/11/24 10:20:04;;;;;;;3.05;1.10;;;7.40;99.90;;;;;;6184530;23;20044;-87
2022/11/24 10:23:29;;;;;;;1.80;1.13;;;7.50;99.90;;;;;;6164998;23;20025;-86
2022/11/24 10:26:29;;;;;;;2.42;1.40;;;7.30;47.00;;;;;;6187154;23;20329;-85
2022/11/24 10:29:38;;;;;;;4.63;1.77;;;7.10;99.90;;;;;;6187440;23;20029;-89
2022/11/24 10:32:36;;;;;;;2.83;1.85;;;6.90;99.90;;;;;;6166391;23;20033;-86
2022/11/24 10:35:35;;;;;;;4.57;1.63;;;6.90;24.30;;;;;;6164216;23;20029;-86
2022/11/24 10:38:30;;;;;;;1.88;1.20;;;7.00;86.90;;;;;;6167198;23;20021;-85
2022/11/24 10:41:38;;;;;;;2.50;1.30;;;7.40;99.90;;;;;;6184673;23;20052;-85
2022/11/24 10:44:27;;;;;;;2.63;1.40;;;7.80;1.00;;;;;;6185533;23;20021;-84
2022/11/24 10:47:21;;;;;;;3.33;1.10;;;9.10;99.90;;;;;;6185796;23;20027;-84
2022/11/24 10:50:15;;;;;;;3.63;1.30;;;9.20;99.90;;;;;;6184617;23;20025;-84
2022/11/24 10:53:21;;;;;;;4.00;1.75;;;8.70;99.90;;;;;;6164233;23;20412;-85
2022/11/24 10:56:11;;;;;;;3.13;1.52;;;8.50;99.90;;;;;;6164680;23;20325;-84
2022/11/24 10:59:33;;;;;;;2.70;1.40;;;8.50;99.90;;;;;;6187556;23;20028;-83
2022/11/24 11:02:38;;;;;;;4.30;1.48;;;8.60;37.40;;;;;;6187131;23;20029;-83
2022/11/24 11:05:36;;;;;;;1.85;1.00;;;9.60;10.10;;;;;;6186472;23;20024;-83
2022/11/24 11:08:29;;;;;;;5.63;1.45;;;10.50;99.90;;;;;;6184868;23;20021;-86
2022/11/24 11:11:16;;;;;;;2.70;1.08;;;12.00;99.90;;;;;;6185223;23;20020;-84
2022/11/24 11:14:08;;;;;;;3.03;1.10;;;12.40;99.90;;;;;;6191925;23;20025;-85
2022/11/24 11:16:56;;;;;;;1.38;0.73;;;12.10;99.90;;;;;;6191072;23;20115;-85
2022/11/24 11:19:46;;;;;;;2.88;1.00;;;11.90;19.30;;;;;;6189740;23;20401;-83
2022/11/24 11:22:45;;;;;;;5.18;1.33;;;11.10;10.50;;;;;;6190447;23;20079;-81
2022/11/24 11:25:34;;;;;;;;;;;10.40;55.40;;;;;;6197950;23;20024;-83
2022/11/24 11:28:24;;;;;;;5.65;1.48;;;10.30;99.90;;;;;;6173536;23;19982;-83
2022/11/24 11:31:19;;;;;;;4.00;1.60;;;10.00;99.90;;;;;;6189471;23;20029;-84
2022/11/24 11:34:08;;;;;;;4.50;1.77;;;9.90;99.90;;;;;;6187395;23;20389;-82
2022/11/24 11:37:11;;;;;;;7.22;2.03;;;10.70;99.90;;;;;;6166804;23;20035;-84
2022/11/24 11:39:59;;;;;;;5.22;1.55;;;10.50;99.90;;;;;;6186186;23;20436;-83
2022/11/24 11:42:51;;;;;;;4.85;1.58;;;10.70;99.90;;;;;;6186260;23;20049;-83
2022/11/24 11:46:04;;;;;;;5.47;1.75;;;12.00;99.90;;;;;;6185836;23;20025;-85
2022/11/24 11:48:52;;;;;;;4.78;1.38;;;13.40;11.30;;;;;;6184306;23;20310;-85
2022/11/24 11:52:00;;;;;;;4.57;1.50;;;13.80;1.00;;;;;;6185014;23;20029;-83
2022/11/24 11:55:16;;;;;;;7.35;1.67;;;14.50;1.00;;;;;;6185736;23;20087;-81
2022/11/24 11:58:25;;;;;;;6.68;1.50;;;15.10;99.90;;;;;;6186353;23;20021;-83
2022/11/24 12:01:22;;;;;;;4.47;1.23;;;15.20;99.90;;;;;;6184166;23;20029;-85
2022/11/24 12:04:40;;;;;;;6.18;1.95;;;13.80;99.90;;;;;;6184701;23;20095;-86
2022/11/24 12:07:46;;;;;;;8.48;1.60;;;13.90;99.90;;;;;;6187876;23;20100;-84
2022/11/24 12:10:33;;;;;;;8.32;1.77;;;12.30;99.90;;;;;;6193336;23;20029;-85
2022/11/24 12:13:48;;;;;;;10.70;1.80;;;10.90;99.90;;;;;;6164762;23;20040;-82
2022/11/24 12:16:55;;;;;;;7.93;2.33;;;10.10;99.90;;;;;;6164126;23;20025;-82
2022/11/24 12:19:54;;;;;;;7.32;1.75;;;9.90;99.90;;;;;;6187547;23;20020;-81
2022/11/24 12:23:09;;;;;;;5.22;1.77;;;9.90;99.90;;;;;;6165480;23;20033;-81
2022/11/24 12:26:02;;;;;;;6.95;2.00;;;9.70;99.90;;;;;;6185573;23;20097;-81
2022/11/24 12:29:01;;;;;;;10.07;2.13;;;9.50;99.90;;;;;;6184248;23;20021;-81
2022/11/24 12:32:01;;;;;;;9.65;1.90;;;9.50;99.90;;;;;;6163399;23;20084;-82
2022/11/24 12:35:05;;;;;;;6.13;1.77;;;9.50;99.90;;;;;;6185560;23;20436;-82
2022/11/24 12:38:07;;;;;;;6.40;1.63;;;9.50;1.00;;;;;;6186143;23;20021;-82
2022/11/24 12:41:32;;;;;;;7.30;1.90;;;9.50;99.90;;;;;;6182686;23;20029;-83
2022/11/24 12:44:28;;;;;;;;;;;9.50;99.90;;;;;;6185897;23;20087;-84
2022/11/24 12:47:33;;;;;;;9.30;2.17;;;9.60;99.90;;;;;;6184953;23;20363;-86
2022/11/24 12:50:27;;;;;;;8.30;1.60;;;11.10;99.90;;;;;;6162966;23;20460;-86
2022/11/24 12:53:31;;;;;;;5.75;1.45;;;12.40;99.90;;;;;;6184576;23;20025;-86
2022/11/24 12:56:52;;;;;;;7.35;2.03;;;13.80;99.90;;;;;;6185535;23;20040;-88
2022/11/24 12:59:39;;;;;;;7.63;2.03;;;13.70;99.90;;;;;;6165814;23;20025;-86
2022/11/24 13:02:51;;;;;;;6.05;1.85;;;14.00;99.90;;;;;;6186796;23;20079;-84
2022/11/24 13:05:52;;;;;;;7.35;2.30;;;14.10;99.90;;;;;;6166399;23;20337;-86
2022/11/24 13:08:40;;;;;;;7.18;1.90;;;14.60;99.90;;;;;;6188434;23;20029;-85
2022/11/24 13:11:36;;;;;;;5.70;1.42;;;14.40;99.90;;;;;;6165394;23;20087;-85
2022/11/24 13:14:32;;;;;;;7.20;1.65;;;14.00;99.90;;;;;;6187326;23;20040;-86
2022/11/24 13:17:35;;;;;;;7.93;2.10;;;13.60;99.90;;;;;;6187423;23;20025;-86
2022/11/24 13:20:42;;;;;;;7.15;1.95;;;13.40;99.90;;;;;;6185398;23;20097;-84
2022/11/24 13:23:30;;;;;;;10.50;1.80;;;14.00;99.90;;;;;;6187551;23;20103;-84
2022/11/24 13:26:29;;;;;;;7.82;1.73;;;14.30;99.90;;;;;;6186196;23;20025;-85
2022/11/24 13:29:36;;;;;;;9.20;2.30;;;14.00;99.90;;;;;;6184626;23;20029;-86
2022/11/24 13:32:23;;;;;;;8.20;2.22;;;13.50;99.90;;;;;;6182038;23;20079;-85
2022/11/24 13:35:15;;;;;;;6.88;1.80;;;13.40;99.90;;;;;;6182765;23;20033;-84
2022/11/24 13:38:22;;;;;;;5.07;1.40;;;13.90;99.90;;;;;;6163340;23;20032;-85
2022/11/24 13:41:30;;;;;;;6.28;1.65;;;14.60;99.90;;;;;;6185019;23;20036;-81
2022/11/24 13:44:27;;;;;;;8.35;1.80;;;14.70;99.90;;;;;;6189559;23;20025;-82
2022/11/24 13:47:38;;;;;;;8.88;1.90;;;14.50;99.90;;;;;;6195076;23;20056;-89
2022/11/24 13:50:53;;;;;;;11.55;2.50;;;14.30;99.90;;;;;;6167734;23;20031;-84
2022/11/24 13:53:40;;;;;;;8.30;2.35;;;13.90;99.90;;;;;;6186942;23;20332;-84
2022/11/24 13:56:30;;;;;;;10.65;2.38;;;13.90;99.90;;;;;;6185334;23;20029;-84
2022/11/24 13:59:34;;;;;;;6.18;1.77;;;13.70;99.90;;;;;;6186855;23;20021;-83
2022/11/24 14:02:22;;;;;;;8.85;1.92;;;13.60;99.90;;;;;;6186239;23;20495;-86
2022/11/24 14:05:19;;;;;;;8.60;2.00;;;13.30;99.90;;;;;;6187604;23;20056;-85
2022/11/24 14:08:18;;;;;;;7.60;1.88;;;13.00;99.90;;;;;;6166600;23;20036;-83
2022/11/24 14:11:15;;;;;;;7.57;2.00;;;12.70;99.90;;;;;;6185682;23;20029;-83
2022/11/24 14:14:13;;;;;;;6.70;2.30;;;12.50;99.90;;;;;;6184122;23;20043;-84
2022/11/24 14:17:13;;;;;;;11.43;2.72;;;12.60;99.90;;;;;;6186599;23;20032;-85
2022/11/24 14:20:21;;;;;;;7.72;2.42;;;13.00;99.90;;;;;;6169072;23;20270;-86
2022/11/24 14:23:09;;;;;;;8.77;2.13;;;12.90;99.90;;;;;;6184120;23;20234;-86
2022/11/24 14:25:56;;;;;;;14.48;2.50;;;13.30;99.90;;;;;;6183705;23;20052;-85
2022/11/24 14:28:44;;;;;;;12.23;2.15;;;12.70;99.90;;;;;;6165384;23;20738;-85
2022/11/24 14:31:37;;;;;;;5.18;1.92;;;12.50;99.90;;;;;;6185772;23;20029;-84
2022/11/24 14:34:29;;;;;;;8.32;1.77;;;12.20;99.90;;;;;;6183589;23;20031;-84
2022/11/24 14:37:18;;;;;;;6.90;2.00;;;12.10;99.90;;;;;;6183958;23;20037;-84
2022/11/24 14:40:45;;;;;;;7.80;1.90;;;12.20;99.90;;;;;;6182532;23;20025;-85
2022/11/24 14:43:33;;;;;;;5.95;1.30;;;11.90;99.90;;;;;;6183527;23;20120;-84
2022/11/24 14:46:23;;;;;;;9.68;1.95;;;11.80;99.90;;;;;;6187062;23;20028;-84
2022/11/24 14:49:23;;;;;;;9.95;2.00;;;11.40;99.90;;;;;;6185580;23;20756;-83
2022/11/24 14:52:24;;;;;;;7.15;1.83;;;11.20;99.90;;;;;;6185421;23;20472;-83
2022/11/24 14:55:29;;;;;;;9.02;2.88;;;10.90;99.90;;;;;;6184247;23;20034;-82
2022/11/24 14:58:31;;;;;;;10.35;3.05;;;10.20;99.90;;;;;;6186541;23;20033;-84
2022/11/24 15:01:32;;;;;;;8.15;2.30;;;9.70;99.90;;;;;;6184016;23;20100;-82
2022/11/24 15:04:25;;;;;;;9.70;2.53;;;9.50;99.90;;;;;;6184207;23;20073;-84